sensor_id;sensor_type;location;lat;lon;timestamp;pressure;altitude;pressure_sealevel;temperature;humidity
28008;BME280;15333;50.010;20.020;2023-01-26T00:00:59;99558.31;;;-0.34;100.00
28008;BME280;15333;50.010;20.020;2023-01-26T00:03:59;99555.56;;;-0.28;100.00
28008;BME280;15333;50.010;20.020;2023-01-26T00:07:00;99550.63;;;-0.44;100.00
28008;BME280;15333;50.010;20.020;2023-01-26T00:10:02;99545.41;;;-0.47;100.00
28008;BME280;15333;50.010;20.020;2023-01-26T00:13:04;99548.88;;;-0.45;100.00
28008;BME280;15333;50.010;20.020;2023-01-26T00:16:09;99536.63;;;-0.46;100.00
28008;BME280;15333;50.010;20.020;2023-01-26T00:19:10;99533.03;;;-0.42;100.00
28008;BME280;15333;50.010;20.020;2023-01-26T00:22:11;99526.13;;;-0.46;100.00
28008;BME280;15333;50.010;20.020;2023-01-26T00:25:12;99529.25;;;-0.28;100.00
28008;BME280;15333;50.010;20.020;2023-01-26T00:28:13;99519.75;;;-0.34;100.00
28008;BME280;15333;50.010;20.020;2023-01-26T00:31:16;99519.59;;;-0.28;100.00
28008;BME280;15333;50.010;20.020;2023-01-26T00:34:17;99521.56;;;-0.37;100.00
28008;BME280;15333;50.010;20.020;2023-01-26T00:37:18;99513.69;;;-0.37;100.00
28008;BME280;15333;50.010;20.020;2023-01-26T00:40:19;99515.31;;;-0.30;100.00
28008;BME280;15333;50.010;20.020;2023-01-26T00:43:20;99507.53;;;-0.36;100.00
28008;BME280;15333;50.010;20.020;2023-01-26T00:46:21;99500.44;;;-0.33;100.00
28008;BME280;15333;50.010;20.020;2023-01-26T00:49:22;99504.16;;;-0.43;100.00
28008;BME280;15333;50.010;20.020;2023-01-26T00:52:22;99496.47;;;-0.54;100.00
28008;BME280;15333;50.010;20.020;2023-01-26T00:55:25;99497.41;;;-0.56;100.00
28008;BME280;15333;50.010;20.020;2023-01-26T00:58:33;99494.69;;;-0.52;100.00
28008;BME280;15333;50.010;20.020;2023-01-26T01:01:34;99491.22;;;-0.54;100.00
28008;BME280;15333;50.010;20.020;2023-01-26T01:04:35;99490.22;;;-0.48;100.00
28008;BME280;15333;50.010;20.020;2023-01-26T01:07:36;99478.06;;;-0.54;100.00
28008;BME280;15333;50.010;20.020;2023-01-26T01:10:37;99474.47;;;-0.50;100.00
28008;BME280;15333;50.010;20.020;2023-01-26T01:13:38;99481.69;;;-0.59;100.00
28008;BME280;15333;50.010;20.020;2023-01-26T01:16:39;99486.00;;;-0.57;100.00
28008;BME280;15333;50.010;20.020;2023-01-26T01:19:41;99486.94;;;-0.58;100.00
28008;BME280;15333;50.010;20.020;2023-01-26T01:22:41;99476.22;;;-0.49;100.00
28008;BME280;15333;50.010;20.020;2023-01-26T01:25:42;99471.41;;;-0.28;100.00
28008;BME280;15333;50.010;20.020;2023-01-26T01:28:43;99473.53;;;-0.46;100.00
28008;BME280;15333;50.010;20.020;2023-01-26T01:31:45;99464.66;;;-0.42;100.00
28008;BME280;15333;50.010;20.020;2023-01-26T01:34:46;99463.41;;;-0.22;100.00
28008;BME280;15333;50.010;20.020;2023-01-26T01:37:47;99460.66;;;-0.16;100.00
28008;BME280;15333;50.010;20.020;2023-01-26T01:40:48;99457.22;;;-0.21;100.00
28008;BME280;15333;50.010;20.020;2023-01-26T01:43:50;99456.41;;;-0.23;100.00
28008;BME280;15333;50.010;20.020;2023-01-26T01:46:56;99463.44;;;-0.24;100.00
28008;BME280;15333;50.010;20.020;2023-01-26T01:49:58;99458.34;;;-0.31;98.00
28008;BME280;15333;50.010;20.020;2023-01-26T01:52:59;99460.50;;;-0.10;97.29
28008;BME280;15333;50.010;20.020;2023-01-26T01:56:04;99458.06;;;-0.19;95.65
28008;BME280;15333;50.010;20.020;2023-01-26T01:59:09;99457.63;;;-0.40;96.62
28008;BME280;15333;50.010;20.020;2023-01-26T02:02:12;99458.19;;;-0.24;98.30
28008;BME280;15333;50.010;20.020;2023-01-26T02:05:24;99459.97;;;-0.26;97.65
28008;BME280;15333;50.010;20.020;2023-01-26T02:08:33;99461.81;;;-0.29;100.00
28008;BME280;15333;50.010;20.020;2023-01-26T02:11:42;99451.38;;;-0.34;100.00
28008;BME280;15333;50.010;20.020;2023-01-26T02:14:45;99453.25;;;-0.41;98.57
28008;BME280;15333;50.010;20.020;2023-01-26T02:17:46;99445.81;;;-0.20;95.13
28008;BME280;15333;50.010;20.020;2023-01-26T02:21:02;99445.09;;;-0.28;95.03
28008;BME280;15333;50.010;20.020;2023-01-26T02:24:32;99445.19;;;-0.31;94.19
28008;BME280;15333;50.010;20.020;2023-01-26T02:27:36;99433.00;;;-0.35;94.06
28008;BME280;15333;50.010;20.020;2023-01-26T02:30:37;99426.03;;;-0.36;93.68
28008;BME280;15333;50.010;20.020;2023-01-26T02:33:39;99429.72;;;-0.47;92.80
28008;BME280;15333;50.010;20.020;2023-01-26T02:36:40;99427.34;;;-0.57;94.15
28008;BME280;15333;50.010;20.020;2023-01-26T02:40:04;99422.88;;;-0.54;93.65
28008;BME280;15333;50.010;20.020;2023-01-26T02:43:08;99417.63;;;-0.54;93.09
28008;BME280;15333;50.010;20.020;2023-01-26T02:46:11;99421.13;;;-0.55;92.31
28008;BME280;15333;50.010;20.020;2023-01-26T02:49:14;99411.63;;;-0.60;93.17
28008;BME280;15333;50.010;20.020;2023-01-26T02:52:34;99409.88;;;-0.60;93.81
28008;BME280;15333;50.010;20.020;2023-01-26T02:55:47;99422.25;;;-0.65;93.88
28008;BME280;15333;50.010;20.020;2023-01-26T02:58:48;99419.66;;;-0.68;93.47
28008;BME280;15333;50.010;20.020;2023-01-26T03:01:49;99409.03;;;-0.63;92.43
28008;BME280;15333;50.010;20.020;2023-01-26T03:04:52;99411.66;;;-0.62;92.51
28008;BME280;15333;50.010;20.020;2023-01-26T03:07:54;99409.97;;;-0.64;93.15
28008;BME280;15333;50.010;20.020;2023-01-26T03:10:58;99412.81;;;-0.75;93.73
28008;BME280;15333;50.010;20.020;2023-01-26T03:13:59;99410.94;;;-0.70;94.24
28008;BME280;15333;50.010;20.020;2023-01-26T03:17:00;99415.53;;;-0.80;94.61
28008;BME280;15333;50.010;20.020;2023-01-26T03:20:01;99402.09;;;-0.66;92.34
28008;BME280;15333;50.010;20.020;2023-01-26T03:23:21;99404.75;;;-0.67;93.46
28008;BME280;15333;50.010;20.020;2023-01-26T03:26:47;99416.44;;;-0.82;92.11
28008;BME280;15333;50.010;20.020;2023-01-26T03:30:07;99408.38;;;-0.73;92.05
28008;BME280;15333;50.010;20.020;2023-01-26T03:33:08;99399.84;;;-0.84;92.80
28008;BME280;15333;50.010;20.020;2023-01-26T03:36:09;99402.47;;;-0.84;92.26
28008;BME280;15333;50.010;20.020;2023-01-26T03:39:10;99396.91;;;-0.69;92.00
28008;BME280;15333;50.010;20.020;2023-01-26T03:42:31;99398.69;;;-0.71;92.78
28008;BME280;15333;50.010;20.020;2023-01-26T03:45:51;99390.66;;;-0.63;92.21
28008;BME280;15333;50.010;20.020;2023-01-26T03:49:12;99381.22;;;-0.72;92.77
28008;BME280;15333;50.010;20.020;2023-01-26T03:52:32;99390.00;;;-0.73;92.94
28008;BME280;15333;50.010;20.020;2023-01-26T03:55:52;99380.06;;;-0.59;91.84
28008;BME280;15333;50.010;20.020;2023-01-26T03:59:11;99375.88;;;-0.69;90.87
28008;BME280;15333;50.010;20.020;2023-01-26T04:02:15;99374.81;;;-0.60;90.80
28008;BME280;15333;50.010;20.020;2023-01-26T04:05:36;99381.09;;;-0.66;90.93
28008;BME280;15333;50.010;20.020;2023-01-26T04:08:55;99374.00;;;-0.64;91.18
28008;BME280;15333;50.010;20.020;2023-01-26T04:11:57;99375.59;;;-0.57;91.15
28008;BME280;15333;50.010;20.020;2023-01-26T04:14:58;99372.16;;;-0.59;90.71
28008;BME280;15333;50.010;20.020;2023-01-26T04:18:17;99367.91;;;-0.64;92.04
28008;BME280;15333;50.010;20.020;2023-01-26T04:21:38;99358.25;;;-0.64;90.69
28008;BME280;15333;50.010;20.020;2023-01-26T04:24:48;99356.47;;;-0.62;91.65
28008;BME280;15333;50.010;20.020;2023-01-26T04:27:49;99351.06;;;-0.56;91.66
28008;BME280;15333;50.010;20.020;2023-01-26T04:30:50;99348.00;;;-0.76;91.84
28008;BME280;15333;50.010;20.020;2023-01-26T04:33:52;99347.53;;;-0.55;92.08
28008;BME280;15333;50.010;20.020;2023-01-26T04:36:53;99349.69;;;-0.72;93.49
28008;BME280;15333;50.010;20.020;2023-01-26T04:39:57;99345.41;;;-0.77;94.24
28008;BME280;15333;50.010;20.020;2023-01-26T04:42:58;99348.88;;;-0.75;93.72
28008;BME280;15333;50.010;20.020;2023-01-26T04:46:04;99343.63;;;-0.77;95.00
28008;BME280;15333;50.010;20.020;2023-01-26T04:49:06;99344.75;;;-0.87;95.43
28008;BME280;15333;50.010;20.020;2023-01-26T04:52:08;99337.81;;;-0.91;94.49
28008;BME280;15333;50.010;20.020;2023-01-26T04:55:09;99328.16;;;-0.89;94.55
28008;BME280;15333;50.010;20.020;2023-01-26T04:58:12;99322.03;;;-0.91;93.57
28008;BME280;15333;50.010;20.020;2023-01-26T05:01:13;99329.16;;;-0.96;92.92
28008;BME280;15333;50.010;20.020;2023-01-26T05:04:14;99327.38;;;-0.94;93.40
28008;BME280;15333;50.010;20.020;2023-01-26T05:07:18;99321.09;;;-0.87;94.94
28008;BME280;15333;50.010;20.020;2023-01-26T05:10:21;99328.09;;;-0.86;92.93
28008;BME280;15333;50.010;20.020;2023-01-26T05:14:00;99328.97;;;-0.87;92.66
28008;BME280;15333;50.010;20.020;2023-01-26T05:17:19;99332.41;;;-0.85;93.92
28008;BME280;15333;50.010;20.020;2023-01-26T05:20:39;99330.13;;;-0.59;92.04
28008;BME280;15333;50.010;20.020;2023-01-26T05:23:50;99333.78;;;-0.66;91.56
28008;BME280;15333;50.010;20.020;2023-01-26T05:27:16;99333.97;;;-0.75;91.23
28008;BME280;15333;50.010;20.020;2023-01-26T05:30:27;99332.25;;;-0.77;92.32
28008;BME280;15333;50.010;20.020;2023-01-26T05:33:29;99335.97;;;-0.86;93.36
28008;BME280;15333;50.010;20.020;2023-01-26T05:36:33;99331.13;;;-0.64;91.87
28008;BME280;15333;50.010;20.020;2023-01-26T05:39:34;99337.31;;;-0.67;91.58
28008;BME280;15333;50.010;20.020;2023-01-26T05:42:38;99329.78;;;-0.84;91.03
28008;BME280;15333;50.010;20.020;2023-01-26T05:45:49;99337.63;;;-0.82;92.54
28008;BME280;15333;50.010;20.020;2023-01-26T05:48:51;99327.97;;;-0.82;91.89
28008;BME280;15333;50.010;20.020;2023-01-26T05:51:52;99325.56;;;-0.92;92.09
28008;BME280;15333;50.010;20.020;2023-01-26T05:54:54;99330.59;;;-0.80;93.04
28008;BME280;15333;50.010;20.020;2023-01-26T05:57:54;99326.41;;;-0.90;92.32
28008;BME280;15333;50.010;20.020;2023-01-26T06:00:56;99327.31;;;-0.91;93.64
28008;BME280;15333;50.010;20.020;2023-01-26T06:04:02;99326.13;;;-0.78;94.84
28008;BME280;15333;50.010;20.020;2023-01-26T06:07:12;99326.84;;;-0.70;92.39
28008;BME280;15333;50.010;20.020;2023-01-26T06:10:20;99325.41;;;-0.85;92.29
28008;BME280;15333;50.010;20.020;2023-01-26T06:13:31;99321.53;;;-0.67;92.99
28008;BME280;15333;50.010;20.020;2023-01-26T06:16:55;99313.56;;;-0.64;91.95
28008;BME280;15333;50.010;20.020;2023-01-26T06:19:58;99309.06;;;-0.57;90.88
28008;BME280;15333;50.010;20.020;2023-01-26T06:22:59;99312.63;;;-0.60;90.85
28008;BME280;15333;50.010;20.020;2023-01-26T06:26:02;99306.69;;;-0.69;91.55
28008;BME280;15333;50.010;20.020;2023-01-26T06:29:04;99320.06;;;-0.80;91.55
28008;BME280;15333;50.010;20.020;2023-01-26T06:32:12;99317.34;;;-0.75;92.24
28008;BME280;15333;50.010;20.020;2023-01-26T06:35:13;99325.19;;;-0.74;93.11
28008;BME280;15333;50.010;20.020;2023-01-26T06:38:16;99321.00;;;-0.83;92.01
28008;BME280;15333;50.010;20.020;2023-01-26T06:41:18;99321.06;;;-0.86;92.81
28008;BME280;15333;50.010;20.020;2023-01-26T06:44:19;99320.25;;;-0.88;93.78
28008;BME280;15333;50.010;20.020;2023-01-26T06:47:20;99335.28;;;-0.96;94.13
28008;BME280;15333;50.010;20.020;2023-01-26T06:50:25;99323.72;;;-0.87;93.13
28008;BME280;15333;50.010;20.020;2023-01-26T06:53:33;99314.03;;;-0.85;93.23
28008;BME280;15333;50.010;20.020;2023-01-26T06:56:57;99315.88;;;-0.89;95.02
28008;BME280;15333;50.010;20.020;2023-01-26T07:00:21;99312.41;;;-0.91;95.34
28008;BME280;15333;50.010;20.020;2023-01-26T07:03:54;99315.00;;;-0.89;94.51
28008;BME280;15333;50.010;20.020;2023-01-26T07:06:55;99309.75;;;-0.89;94.94
28008;BME280;15333;50.010;20.020;2023-01-26T07:09:56;99309.69;;;-0.86;96.12
28008;BME280;15333;50.010;20.020;2023-01-26T07:12:57;99311.34;;;-0.82;94.79
28008;BME280;15333;50.010;20.020;2023-01-26T07:16:02;99315.56;;;-0.73;94.27
28008;BME280;15333;50.010;20.020;2023-01-26T07:19:03;99305.47;;;-0.55;92.96
28008;BME280;15333;50.010;20.020;2023-01-26T07:22:04;99305.69;;;-0.64;92.63
28008;BME280;15333;50.010;20.020;2023-01-26T07:25:05;99303.88;;;-0.62;93.74
28008;BME280;15333;50.010;20.020;2023-01-26T07:28:06;99301.47;;;-0.71;92.76
28008;BME280;15333;50.010;20.020;2023-01-26T07:31:10;99297.13;;;-0.72;93.79
28008;BME280;15333;50.010;20.020;2023-01-26T07:34:12;99297.75;;;-0.61;93.29
28008;BME280;15333;50.010;20.020;2023-01-26T07:37:12;99298.63;;;-0.62;93.81
28008;BME280;15333;50.010;20.020;2023-01-26T07:40:13;99297.03;;;-0.69;94.18
28008;BME280;15333;50.010;20.020;2023-01-26T07:43:14;99302.25;;;-0.66;94.73
28008;BME280;15333;50.010;20.020;2023-01-26T07:46:21;99289.84;;;-0.61;94.85
28008;BME280;15333;50.010;20.020;2023-01-26T07:49:23;99288.22;;;-0.65;94.68
28008;BME280;15333;50.010;20.020;2023-01-26T07:52:24;99292.50;;;-0.62;93.33
28008;BME280;15333;50.010;20.020;2023-01-26T07:55:27;99288.22;;;-0.65;93.81
28008;BME280;15333;50.010;20.020;2023-01-26T07:58:28;99290.47;;;-0.50;95.28
28008;BME280;15333;50.010;20.020;2023-01-26T08:01:29;99289.41;;;-0.43;93.32
28008;BME280;15333;50.010;20.020;2023-01-26T08:04:31;99287.19;;;-0.22;90.90
28008;BME280;15333;50.010;20.020;2023-01-26T08:07:31;99301.84;;;-0.12;90.68
28008;BME280;15333;50.010;20.020;2023-01-26T08:10:32;99301.66;;;-0.05;89.62
28008;BME280;15333;50.010;20.020;2023-01-26T08:13:33;99298.19;;;-0.07;89.19
28008;BME280;15333;50.010;20.020;2023-01-26T08:16:34;99294.09;;;-0.18;91.13
28008;BME280;15333;50.010;20.020;2023-01-26T08:19:35;99295.63;;;-0.08;90.92
28008;BME280;15333;50.010;20.020;2023-01-26T08:22:36;99288.41;;;0.00;90.75
28008;BME280;15333;50.010;20.020;2023-01-26T08:25:37;99297.53;;;-0.15;92.65
28008;BME280;15333;50.010;20.020;2023-01-26T08:28:38;99290.19;;;-0.02;92.74
28008;BME280;15333;50.010;20.020;2023-01-26T08:31:39;99289.88;;;0.10;90.34
28008;BME280;15333;50.010;20.020;2023-01-26T08:34:40;99298.50;;;0.15;89.36
28008;BME280;15333;50.010;20.020;2023-01-26T08:37:41;99295.34;;;0.03;89.44
28008;BME280;15333;50.010;20.020;2023-01-26T08:40:42;99287.56;;;-0.02;90.55
28008;BME280;15333;50.010;20.020;2023-01-26T08:43:42;99293.03;;;-0.10;89.83
28008;BME280;15333;50.010;20.020;2023-01-26T08:46:43;99291.03;;;0.00;90.28
28008;BME280;15333;50.010;20.020;2023-01-26T08:49:44;99294.78;;;-0.10;89.95
28008;BME280;15333;50.010;20.020;2023-01-26T08:52:45;99299.00;;;-0.03;89.41
28008;BME280;15333;50.010;20.020;2023-01-26T08:55:46;99305.88;;;0.01;89.06
28008;BME280;15333;50.010;20.020;2023-01-26T08:58:47;99300.56;;;0.04;89.99
28008;BME280;15333;50.010;20.020;2023-01-26T09:01:48;99299.56;;;0.08;90.05
28008;BME280;15333;50.010;20.020;2023-01-26T09:04:49;99299.47;;;0.13;90.12
28008;BME280;15333;50.010;20.020;2023-01-26T09:07:50;99293.25;;;0.15;88.59
28008;BME280;15333;50.010;20.020;2023-01-26T09:10:51;99296.94;;;0.08;89.19
28008;BME280;15333;50.010;20.020;2023-01-26T09:13:52;99305.59;;;0.13;90.05
28008;BME280;15333;50.010;20.020;2023-01-26T09:16:56;99309.03;;;0.15;88.34
28008;BME280;15333;50.010;20.020;2023-01-26T09:19:56;99306.47;;;0.14;88.49
28008;BME280;15333;50.010;20.020;2023-01-26T09:22:58;99310.94;;;0.10;87.97
28008;BME280;15333;50.010;20.020;2023-01-26T09:25:59;99295.38;;;0.01;90.36
28008;BME280;15333;50.010;20.020;2023-01-26T09:29:00;99303.00;;;0.12;89.71
28008;BME280;15333;50.010;20.020;2023-01-26T09:32:01;99289.66;;;0.19;89.03
28008;BME280;15333;50.010;20.020;2023-01-26T09:35:02;99285.47;;;0.11;88.68
28008;BME280;15333;50.010;20.020;2023-01-26T09:38:03;99288.97;;;0.11;90.21
28008;BME280;15333;50.010;20.020;2023-01-26T09:44:23;99275.59;;;0.20;88.76
28008;BME280;15333;50.010;20.020;2023-01-26T09:47:32;99273.63;;;0.28;88.69
28008;BME280;15333;50.010;20.020;2023-01-26T09:50:59;99273.69;;;0.25;88.45
28008;BME280;15333;50.010;20.020;2023-01-26T09:57:12;99263.56;;;0.10;88.21
28008;BME280;15333;50.010;20.020;2023-01-26T10:07:02;99255.59;;;0.13;88.87
28008;BME280;15333;50.010;20.020;2023-01-26T10:10:36;99249.75;;;0.02;88.95
28008;BME280;15333;50.010;20.020;2023-01-26T10:13:41;99256.56;;;0.09;89.38
28008;BME280;15333;50.010;20.020;2023-01-26T10:16:49;99252.06;;;0.14;89.54
28008;BME280;15333;50.010;20.020;2023-01-26T10:20:33;99245.66;;;0.24;89.28
28008;BME280;15333;50.010;20.020;2023-01-26T10:23:35;99246.00;;;0.43;86.37
28008;BME280;15333;50.010;20.020;2023-01-26T10:26:36;99240.88;;;0.38;86.64
28008;BME280;15333;50.010;20.020;2023-01-26T10:29:37;99236.34;;;0.44;86.63
28008;BME280;15333;50.010;20.020;2023-01-26T10:32:40;99232.81;;;0.45;87.07
28008;BME280;15333;50.010;20.020;2023-01-26T10:35:41;99233.22;;;0.29;86.70
28008;BME280;15333;50.010;20.020;2023-01-26T10:38:43;99232.03;;;0.41;86.99
28008;BME280;15333;50.010;20.020;2023-01-26T10:42:01;99233.22;;;0.29;86.72
28008;BME280;15333;50.010;20.020;2023-01-26T10:45:27;99227.56;;;0.43;87.71
28008;BME280;15333;50.010;20.020;2023-01-26T10:48:26;99220.53;;;0.44;86.89
28008;BME280;15333;50.010;20.020;2023-01-26T10:51:30;99210.88;;;0.44;86.08
28008;BME280;15333;50.010;20.020;2023-01-26T10:54:31;99214.38;;;0.45;86.23
28008;BME280;15333;50.010;20.020;2023-01-26T10:57:38;99210.94;;;0.43;86.12
28008;BME280;15333;50.010;20.020;2023-01-26T11:00:40;99211.47;;;0.54;85.48
28008;BME280;15333;50.010;20.020;2023-01-26T11:04:01;99211.56;;;0.51;86.32
28008;BME280;15333;50.010;20.020;2023-01-26T11:07:25;99206.28;;;0.51;87.97
28008;BME280;15333;50.010;20.020;2023-01-26T11:10:32;99200.50;;;0.69;87.71
28008;BME280;15333;50.010;20.020;2023-01-26T11:13:34;99194.16;;;0.76;86.43
28008;BME280;15333;50.010;20.020;2023-01-26T11:16:36;99197.78;;;0.43;86.24
28008;BME280;15333;50.010;20.020;2023-01-26T11:26:11;99196.59;;;0.53;83.80
28008;BME280;15333;50.010;20.020;2023-01-26T11:36:22;99185.34;;;0.48;85.83
28008;BME280;15333;50.010;20.020;2023-01-26T11:46:45;99174.97;;;0.42;86.29
28008;BME280;15333;50.010;20.020;2023-01-26T11:50:03;99163.22;;;0.53;86.64
28008;BME280;15333;50.010;20.020;2023-01-26T11:53:39;99150.28;;;0.46;86.84
28008;BME280;15333;50.010;20.020;2023-01-26T12:03:24;99145.44;;;0.61;85.07
28008;BME280;15333;50.010;20.020;2023-01-26T12:06:39;99142.09;;;0.56;84.95
28008;BME280;15333;50.010;20.020;2023-01-26T12:09:45;99138.78;;;0.50;86.29
28008;BME280;15333;50.010;20.020;2023-01-26T12:12:55;99135.19;;;0.51;85.96
28008;BME280;15333;50.010;20.020;2023-01-26T12:16:06;99137.22;;;0.43;86.20
28008;BME280;15333;50.010;20.020;2023-01-26T12:22:37;99127.44;;;0.46;86.60
28008;BME280;15333;50.010;20.020;2023-01-26T12:25:45;99130.88;;;0.50;86.01
28008;BME280;15333;50.010;20.020;2023-01-26T12:28:55;99113.16;;;0.55;85.76
28008;BME280;15333;50.010;20.020;2023-01-26T12:32:07;99106.91;;;0.57;86.97
28008;BME280;15333;50.010;20.020;2023-01-26T12:35:10;99114.78;;;0.59;86.70
28008;BME280;15333;50.010;20.020;2023-01-26T12:38:23;99111.44;;;0.54;87.14
28008;BME280;15333;50.010;20.020;2023-01-26T12:45:06;99097.56;;;0.49;86.33
28008;BME280;15333;50.010;20.020;2023-01-26T12:48:16;99099.28;;;0.50;86.78
28008;BME280;15333;50.010;20.020;2023-01-26T12:51:24;99097.09;;;0.64;87.95
28008;BME280;15333;50.010;20.020;2023-01-26T12:54:38;99100.69;;;0.60;86.87
28008;BME280;15333;50.010;20.020;2023-01-26T12:57:46;99096.69;;;0.48;87.69
28008;BME280;15333;50.010;20.020;2023-01-26T13:00:51;99100.72;;;0.30;86.74
28008;BME280;15333;50.010;20.020;2023-01-26T13:03:55;99092.34;;;0.46;86.93
28008;BME280;15333;50.010;20.020;2023-01-26T13:07:31;99091.72;;;0.37;87.37
28008;BME280;15333;50.010;20.020;2023-01-26T13:10:50;99088.16;;;0.40;86.90
28008;BME280;15333;50.010;20.020;2023-01-26T13:13:53;99085.56;;;0.38;87.72
28008;BME280;15333;50.010;20.020;2023-01-26T13:16:54;99084.13;;;0.28;88.37
28008;BME280;15333;50.010;20.020;2023-01-26T13:19:56;99085.66;;;0.35;87.73
28008;BME280;15333;50.010;20.020;2023-01-26T13:23:00;99081.53;;;0.27;88.49
28008;BME280;15333;50.010;20.020;2023-01-26T13:26:14;99084.28;;;0.22;87.86
28008;BME280;15333;50.010;20.020;2023-01-26T13:35:28;99087.47;;;0.33;87.84
28008;BME280;15333;50.010;20.020;2023-01-26T13:38:58;99085.38;;;0.15;88.80
28008;BME280;15333;50.010;20.020;2023-01-26T13:41:58;99091.72;;;0.08;88.95
28008;BME280;15333;50.010;20.020;2023-01-26T13:45:03;99093.91;;;0.23;88.29
28008;BME280;15333;50.010;20.020;2023-01-26T13:48:13;99103.34;;;0.30;89.34
28008;BME280;15333;50.010;20.020;2023-01-26T13:51:19;99098.72;;;0.38;87.69
28008;BME280;15333;50.010;20.020;2023-01-26T13:54:22;99091.75;;;0.36;87.10
28008;BME280;15333;50.010;20.020;2023-01-26T13:57:28;99096.47;;;0.26;88.37
28008;BME280;15333;50.010;20.020;2023-01-26T14:00:29;99099.34;;;0.17;88.56
28008;BME280;15333;50.010;20.020;2023-01-26T14:03:30;99093.81;;;0.26;87.56
28008;BME280;15333;50.010;20.020;2023-01-26T14:06:33;99099.19;;;0.22;87.98
28008;BME280;15333;50.010;20.020;2023-01-26T14:10:02;99094.97;;;0.16;89.35
28008;BME280;15333;50.010;20.020;2023-01-26T14:13:03;99099.81;;;0.31;88.21
28008;BME280;15333;50.010;20.020;2023-01-26T14:16:05;99093.00;;;0.24;88.36
28008;BME280;15333;50.010;20.020;2023-01-26T14:19:15;99091.44;;;0.17;87.70
28008;BME280;15333;50.010;20.020;2023-01-26T14:22:17;99097.72;;;0.13;88.65
28008;BME280;15333;50.010;20.020;2023-01-26T14:25:18;99087.31;;;0.09;88.72
28008;BME280;15333;50.010;20.020;2023-01-26T14:28:22;99091.41;;;-0.12;89.12
28008;BME280;15333;50.010;20.020;2023-01-26T14:31:27;99096.25;;;0.03;88.82
28008;BME280;15333;50.010;20.020;2023-01-26T14:34:30;99090.16;;;0.01;89.78
28008;BME280;15333;50.010;20.020;2023-01-26T14:37:31;99088.47;;;0.00;90.41
28008;BME280;15333;50.010;20.020;2023-01-26T14:40:32;99095.34;;;0.04;90.22
28008;BME280;15333;50.010;20.020;2023-01-26T14:43:32;99093.84;;;-0.05;90.24
28008;BME280;15333;50.010;20.020;2023-01-26T14:50:02;99095.13;;;-0.19;91.92
28008;BME280;15333;50.010;20.020;2023-01-26T14:53:15;99082.94;;;-0.22;92.32
28008;BME280;15333;50.010;20.020;2023-01-26T14:56:24;99087.72;;;-0.36;92.04
28008;BME280;15333;50.010;20.020;2023-01-26T14:59:32;99086.91;;;-0.40;93.49
28008;BME280;15333;50.010;20.020;2023-01-26T15:02:42;99086.09;;;-0.42;92.49
28008;BME280;15333;50.010;20.020;2023-01-26T15:05:44;99084.53;;;-0.49;94.16
28008;BME280;15333;50.010;20.020;2023-01-26T15:09:16;99079.38;;;-0.52;93.07
28008;BME280;15333;50.010;20.020;2023-01-26T15:12:19;99078.53;;;-0.54;93.68
28008;BME280;15333;50.010;20.020;2023-01-26T15:15:21;99074.13;;;-0.53;95.30
28008;BME280;15333;50.010;20.020;2023-01-26T15:18:29;99076.97;;;-0.61;95.05
28008;BME280;15333;50.010;20.020;2023-01-26T15:21:35;99080.63;;;-0.66;96.36
28008;BME280;15333;50.010;20.020;2023-01-26T15:24:40;99079.44;;;-0.55;97.28
28008;BME280;15333;50.010;20.020;2023-01-26T15:27:41;99085.66;;;-0.57;95.83
28008;BME280;15333;50.010;20.020;2023-01-26T15:30:46;99085.78;;;-0.63;97.87
28008;BME280;15333;50.010;20.020;2023-01-26T15:33:52;99079.66;;;-0.64;97.66
28008;BME280;15333;50.010;20.020;2023-01-26T15:36:53;99072.53;;;-0.59;96.82
28008;BME280;15333;50.010;20.020;2023-01-26T15:39:56;99077.69;;;-0.56;98.03
28008;BME280;15333;50.010;20.020;2023-01-26T15:43:10;99073.44;;;-0.60;97.04
28008;BME280;15333;50.010;20.020;2023-01-26T15:46:12;99084.13;;;-0.66;98.57
28008;BME280;15333;50.010;20.020;2023-01-26T15:49:13;99083.13;;;-0.62;97.66
28008;BME280;15333;50.010;20.020;2023-01-26T15:52:15;99077.03;;;-0.64;98.51
28008;BME280;15333;50.010;20.020;2023-01-26T15:55:26;99081.38;;;-0.63;98.07
28008;BME280;15333;50.010;20.020;2023-01-26T15:58:29;99084.16;;;-0.67;98.54
28008;BME280;15333;50.010;20.020;2023-01-26T16:01:34;99074.50;;;-0.67;97.70
28008;BME280;15333;50.010;20.020;2023-01-26T16:04:35;99079.81;;;-0.70;99.43
28008;BME280;15333;50.010;20.020;2023-01-26T16:07:36;99069.31;;;-0.70;98.21
28008;BME280;15333;50.010;20.020;2023-01-26T16:10:37;99074.66;;;-0.73;99.35
28008;BME280;15333;50.010;20.020;2023-01-26T16:13:38;99073.81;;;-0.73;98.45
28008;BME280;15333;50.010;20.020;2023-01-26T16:16:41;99073.78;;;-0.72;99.10
28008;BME280;15333;50.010;20.020;2023-01-26T16:19:43;99071.22;;;-0.75;99.24
28008;BME280;15333;50.010;20.020;2023-01-26T16:22:44;99072.84;;;-0.71;99.61
28008;BME280;15333;50.010;20.020;2023-01-26T16:25:46;99067.59;;;-0.71;98.93
28008;BME280;15333;50.010;20.020;2023-01-26T16:28:47;99073.81;;;-0.73;99.31
28008;BME280;15333;50.010;20.020;2023-01-26T16:31:48;99081.88;;;-0.81;100.00
28008;BME280;15333;50.010;20.020;2023-01-26T16:34:49;99071.19;;;-0.73;100.00
28008;BME280;15333;50.010;20.020;2023-01-26T16:37:50;99069.41;;;-0.73;99.88
28008;BME280;15333;50.010;20.020;2023-01-26T16:40:52;99071.28;;;-0.78;100.00
28008;BME280;15333;50.010;20.020;2023-01-26T16:43:55;99073.25;;;-0.86;100.00
28008;BME280;15333;50.010;20.020;2023-01-26T16:46:56;99064.16;;;-0.73;100.00
28008;BME280;15333;50.010;20.020;2023-01-26T16:49:58;99065.81;;;-0.70;100.00
28008;BME280;15333;50.010;20.020;2023-01-26T16:53:01;99065.69;;;-0.64;100.00
28008;BME280;15333;50.010;20.020;2023-01-26T16:56:11;99063.09;;;-0.66;100.00
28008;BME280;15333;50.010;20.020;2023-01-26T16:59:13;99066.75;;;-0.71;100.00
28008;BME280;15333;50.010;20.020;2023-01-26T17:02:24;99067.91;;;-0.83;100.00
28008;BME280;15333;50.010;20.020;2023-01-26T17:05:25;99060.53;;;-0.69;100.00
28008;BME280;15333;50.010;20.020;2023-01-26T17:08:26;99055.44;;;-0.75;100.00
28008;BME280;15333;50.010;20.020;2023-01-26T17:11:28;99055.50;;;-0.78;100.00